sensor_id;sensor_type;location;lat;lon;timestamp;pressure;altitude;pressure_sealevel;temperature;humidity
3697;BME280;60662;48.810;8.872;2022-08-03T06:45:59;96623.66;;;22.59;52.39
3697;BME280;60662;48.810;8.872;2022-08-03T06:47:01;96625.44;;;22.69;51.74
3697;BME280;60662;48.810;8.872;2022-08-03T06:48:05;96633.97;;;22.82;51.88
3697;BME280;60662;48.810;8.872;2022-08-03T06:49:07;96629.28;;;22.94;51.63
3697;BME280;60662;48.810;8.872;2022-08-03T06:50:09;96630.22;;;23.03;51.31
3697;BME280;60662;48.810;8.872;2022-08-03T06:51:17;96631.59;;;23.17;51.25
3697;BME280;60662;48.810;8.872;2022-08-03T06:52:19;96636.34;;;23.23;50.88
3697;BME280;60662;48.810;8.872;2022-08-03T06:53:38;96640.22;;;23.28;50.70
3697;BME280;60662;48.810;8.872;2022-08-03T06:54:40;96639.59;;;23.44;50.55
3697;BME280;60662;48.810;8.872;2022-08-03T06:55:42;96636.28;;;23.60;50.94
3697;BME280;60662;48.810;8.872;2022-08-03T06:56:43;96629.88;;;23.71;50.11
3697;BME280;60662;48.810;8.872;2022-08-03T06:57:44;96638.19;;;23.86;49.88
3697;BME280;60662;48.810;8.872;2022-08-03T06:58:46;96642.94;;;23.92;49.87
3697;BME280;60662;48.810;8.872;2022-08-03T07:37:39;96643.56;;;25.95;45.31
3697;BME280;60662;48.810;8.872;2022-08-03T07:38:54;96643.94;;;26.08;45.36
3697;BME280;60662;48.810;8.872;2022-08-03T07:39:56;96641.44;;;26.15;45.65
3697;BME280;60662;48.810;8.872;2022-08-03T07:40:57;96639.09;;;26.20;46.32
3697;BME280;60662;48.810;8.872;2022-08-03T07:41:58;96650.78;;;26.36;45.33
3697;BME280;60662;48.810;8.872;2022-08-03T07:43:00;96649.28;;;26.50;44.75
3697;BME280;60662;48.810;8.872;2022-08-03T07:44:03;96652.28;;;26.38;44.93
3697;BME280;60662;48.810;8.872;2022-08-03T07:45:05;96648.28;;;26.34;44.77
3697;BME280;60662;48.810;8.872;2022-08-03T07:46:16;96648.94;;;26.45;45.05
3697;BME280;60662;48.810;8.872;2022-08-03T07:47:19;96656.16;;;26.36;44.78
3697;BME280;60662;48.810;8.872;2022-08-03T07:48:23;96656.16;;;26.36;44.95
3697;BME280;60662;48.810;8.872;2022-08-03T07:49:25;96652.66;;;26.27;45.00
3697;BME280;60662;48.810;8.872;2022-08-03T07:50:27;96651.47;;;26.21;45.16
3697;BME280;60662;48.810;8.872;2022-08-03T07:51:28;96652.50;;;26.29;45.54
3697;BME280;60662;48.810;8.872;2022-08-03T07:52:30;96651.97;;;26.25;45.32
3697;BME280;60662;48.810;8.872;2022-08-03T07:53:50;96645.81;;;26.24;45.15
3697;BME280;60662;48.810;8.872;2022-08-03T07:54:53;96654.00;;;26.48;44.92
3697;BME280;60662;48.810;8.872;2022-08-03T08:33:14;96622.00;;;27.67;40.31
3697;BME280;60662;48.810;8.872;2022-08-03T08:34:23;96648.53;;;27.62;39.99
3697;BME280;60662;48.810;8.872;2022-08-03T08:35:25;96642.44;;;27.68;40.48
3697;BME280;60662;48.810;8.872;2022-08-03T08:36:26;96638.72;;;27.69;40.46
3697;BME280;60662;48.810;8.872;2022-08-03T08:37:28;96642.47;;;27.60;40.82
3697;BME280;60662;48.810;8.872;2022-08-03T08:38:29;96643.00;;;27.55;40.96
3697;BME280;60662;48.810;8.872;2022-08-03T08:39:31;96642.50;;;27.51;41.59
3697;BME280;60662;48.810;8.872;2022-08-03T08:40:32;96647.56;;;28.01;40.09
3697;BME280;60662;48.810;8.872;2022-08-03T08:41:34;96641.38;;;28.00;37.46
3697;BME280;60662;48.810;8.872;2022-08-03T08:42:39;96642.22;;;28.01;36.71
3697;BME280;60662;48.810;8.872;2022-08-03T08:43:58;96634.56;;;28.21;36.84
3697;BME280;60662;48.810;8.872;2022-08-03T08:45:00;96641.53;;;28.30;37.38
3697;BME280;60662;48.810;8.872;2022-08-03T08:46:02;96641.69;;;28.29;37.47
3697;BME280;60662;48.810;8.872;2022-08-03T08:47:07;96636.31;;;28.29;35.87
3697;BME280;60662;48.810;8.872;2022-08-03T08:48:09;96644.88;;;28.32;34.84
3697;BME280;60662;48.810;8.872;2022-08-03T08:49:11;96639.63;;;28.39;35.86
3697;BME280;60662;48.810;8.872;2022-08-03T08:50:20;96644.34;;;28.37;38.10
3697;BME280;60662;48.810;8.872;2022-08-03T08:51:30;96645.72;;;28.48;37.80
3697;BME280;60662;48.810;8.872;2022-08-03T09:30:58;96634.53;;;29.57;32.45
3697;BME280;60662;48.810;8.872;2022-08-03T09:32:02;96628.97;;;29.44;32.39
3697;BME280;60662;48.810;8.872;2022-08-03T09:33:05;96628.03;;;29.52;33.19
3697;BME280;60662;48.810;8.872;2022-08-03T09:34:11;96628.84;;;29.52;32.70
3697;BME280;60662;48.810;8.872;2022-08-03T09:35:13;96621.16;;;29.49;32.97
3697;BME280;60662;48.810;8.872;2022-08-03T09:36:38;96627.50;;;29.78;33.05
3697;BME280;60662;48.810;8.872;2022-08-03T09:37:40;96626.13;;;30.04;33.38
3697;BME280;60662;48.810;8.872;2022-08-03T09:39:04;96623.84;;;29.64;33.53
3697;BME280;60662;48.810;8.872;2022-08-03T09:40:06;96625.31;;;30.03;32.95
3697;BME280;60662;48.810;8.872;2022-08-03T09:41:17;96632.16;;;30.06;32.76
3697;BME280;60662;48.810;8.872;2022-08-03T09:42:19;96621.50;;;29.97;33.08
3697;BME280;60662;48.810;8.872;2022-08-03T09:43:24;96629.78;;;30.18;32.83
3697;BME280;60662;48.810;8.872;2022-08-03T09:44:38;96627.97;;;30.46;32.35
3697;BME280;60662;48.810;8.872;2022-08-03T09:45:41;96639.34;;;29.84;32.26
3697;BME280;60662;48.810;8.872;2022-08-03T09:46:49;96629.72;;;29.89;33.21
3697;BME280;60662;48.810;8.872;2022-08-03T09:47:51;96627.91;;;30.61;32.21
3697;BME280;60662;48.810;8.872;2022-08-03T09:48:52;96626.19;;;31.17;32.03
3697;BME280;60662;48.810;8.872;2022-08-03T09:51:03;96636.03;;;31.32;30.96
3697;BME280;60662;48.810;8.872;2022-08-03T09:52:35;96622.06;;;30.86;32.49
3697;BME280;60662;48.810;8.872;2022-08-03T09:53:50;96624.88;;;31.48;31.59
3697;BME280;60662;48.810;8.872;2022-08-03T09:55:07;96626.13;;;30.75;32.75
3697;BME280;60662;48.810;8.872;2022-08-03T09:56:44;96629.34;;;30.92;32.57
3697;BME280;60662;48.810;8.872;2022-08-03T09:57:47;96625.19;;;30.90;31.96
3697;BME280;60662;48.810;8.872;2022-08-03T09:58:48;96622.13;;;31.00;32.22
3697;BME280;60662;48.810;8.872;2022-08-03T09:59:52;96622.13;;;30.65;32.67
3697;BME280;60662;48.810;8.872;2022-08-03T10:01:06;96623.00;;;30.72;32.73
3697;BME280;60662;48.810;8.872;2022-08-03T10:02:26;96630.19;;;30.65;32.78
3697;BME280;60662;48.810;8.872;2022-08-03T10:03:29;96628.16;;;30.67;32.68
3697;BME280;60662;48.810;8.872;2022-08-03T10:04:30;96631.47;;;30.97;32.56
3697;BME280;60662;48.810;8.872;2022-08-03T10:41:51;96587.88;;;32.17;30.90
3697;BME280;60662;48.810;8.872;2022-08-03T10:43:06;96583.47;;;31.69;31.29
3697;BME280;60662;48.810;8.872;2022-08-03T10:44:20;96593.94;;;32.33;31.00
3697;BME280;60662;48.810;8.872;2022-08-03T10:45:25;96594.16;;;32.45;30.84
3697;BME280;60662;48.810;8.872;2022-08-03T10:46:27;96588.34;;;32.54;30.77
3697;BME280;60662;48.810;8.872;2022-08-03T10:47:29;96590.22;;;32.20;30.72
3697;BME280;60662;48.810;8.872;2022-08-03T10:48:31;96599.78;;;32.30;30.66
3697;BME280;60662;48.810;8.872;2022-08-03T10:49:33;96588.91;;;32.16;31.02
3697;BME280;60662;48.810;8.872;2022-08-03T10:50:36;96597.81;;;31.83;30.77
3697;BME280;60662;48.810;8.872;2022-08-03T10:51:39;96585.81;;;31.86;31.15
3697;BME280;60662;48.810;8.872;2022-08-03T10:52:59;96590.16;;;32.07;30.74
3697;BME280;60662;48.810;8.872;2022-08-03T10:54:04;96588.34;;;32.21;30.57
3697;BME280;60662;48.810;8.872;2022-08-03T10:55:44;96592.41;;;31.77;32.12
3697;BME280;60662;48.810;8.872;2022-08-03T10:57:05;96584.13;;;31.85;31.24
3697;BME280;60662;48.810;8.872;2022-08-03T10:59:58;96577.91;;;31.98;31.60
3697;BME280;60662;48.810;8.872;2022-08-03T11:01:02;96591.00;;;31.94;31.46
3697;BME280;60662;48.810;8.872;2022-08-03T11:02:04;96587.91;;;30.93;32.82
3697;BME280;60662;48.810;8.872;2022-08-03T11:03:11;96589.09;;;31.74;32.17
3697;BME280;60662;48.810;8.872;2022-08-03T11:04:18;96578.34;;;32.82;30.87
3697;BME280;60662;48.810;8.872;2022-08-03T11:05:24;96585.59;;;32.68;30.37
3697;BME280;60662;48.810;8.872;2022-08-03T11:06:26;96590.06;;;33.28;29.80
3697;BME280;60662;48.810;8.872;2022-08-03T11:07:37;96583.91;;;33.59;29.35
3697;BME280;60662;48.810;8.872;2022-08-03T11:08:39;96588.25;;;34.06;28.96
3697;BME280;60662;48.810;8.872;2022-08-03T11:09:42;96589.44;;;34.42;29.12
3697;BME280;60662;48.810;8.872;2022-08-03T11:10:44;96588.13;;;34.19;28.80
3697;BME280;60662;48.810;8.872;2022-08-03T11:11:47;96586.22;;;34.52;28.36
3697;BME280;60662;48.810;8.872;2022-08-03T11:12:49;96584.50;;;34.00;28.80
3697;BME280;60662;48.810;8.872;2022-08-03T11:14:01;96580.97;;;34.75;28.43
3697;BME280;60662;48.810;8.872;2022-08-03T11:15:06;96576.72;;;35.23;26.84
3697;BME280;60662;48.810;8.872;2022-08-03T11:16:19;96569.88;;;34.08;27.70
3697;BME280;60662;48.810;8.872;2022-08-03T11:17:22;96566.38;;;33.16;28.92
3697;BME280;60662;48.810;8.872;2022-08-03T11:18:24;96571.16;;;33.21;29.53
3697;BME280;60662;48.810;8.872;2022-08-03T11:19:42;96570.63;;;32.92;30.13
3697;BME280;60662;48.810;8.872;2022-08-03T11:20:59;96564.00;;;33.40;29.48
3697;BME280;60662;48.810;8.872;2022-08-03T11:22:00;96568.53;;;33.53;29.28
3697;BME280;60662;48.810;8.872;2022-08-03T11:23:02;96575.28;;;33.76;28.74
3697;BME280;60662;48.810;8.872;2022-08-03T11:24:03;96572.53;;;33.44;28.94
3697;BME280;60662;48.810;8.872;2022-08-03T11:25:07;96563.84;;;33.21;29.21
3697;BME280;60662;48.810;8.872;2022-08-03T11:26:28;96566.69;;;33.47;29.18
3697;BME280;60662;48.810;8.872;2022-08-03T11:27:31;96559.81;;;33.44;29.22
3697;BME280;60662;48.810;8.872;2022-08-03T11:28:33;96567.19;;;33.24;29.13
3697;BME280;60662;48.810;8.872;2022-08-03T11:29:34;96563.66;;;33.16;29.00
3697;BME280;60662;48.810;8.872;2022-08-03T11:30:36;96556.09;;;33.45;28.74
3697;BME280;60662;48.810;8.872;2022-08-03T11:32:52;96563.06;;;33.14;29.60
3697;BME280;60662;48.810;8.872;2022-08-03T11:34:05;96563.44;;;33.31;29.40
3697;BME280;60662;48.810;8.872;2022-08-03T11:36:22;96557.97;;;33.45;28.71
3697;BME280;60662;48.810;8.872;2022-08-03T11:37:33;96563.63;;;32.51;29.91
3697;BME280;60662;48.810;8.872;2022-08-03T12:15:56;96539.09;;;34.53;25.31
3697;BME280;60662;48.810;8.872;2022-08-03T12:16:59;96544.19;;;34.42;25.84
3697;BME280;60662;48.810;8.872;2022-08-03T12:18:02;96544.63;;;34.39;26.31
3697;BME280;60662;48.810;8.872;2022-08-03T12:19:05;96544.28;;;35.66;25.04
3697;BME280;60662;48.810;8.872;2022-08-03T12:20:14;96542.75;;;35.82;24.91
3697;BME280;60662;48.810;8.872;2022-08-03T12:21:45;96542.25;;;35.73;24.49
3697;BME280;60662;48.810;8.872;2022-08-03T12:23:03;96538.28;;;34.71;25.95
3697;BME280;60662;48.810;8.872;2022-08-03T12:24:05;96531.59;;;34.92;26.03
3697;BME280;60662;48.810;8.872;2022-08-03T12:25:07;96532.13;;;35.68;25.13
3697;BME280;60662;48.810;8.872;2022-08-03T12:26:10;96523.72;;;36.00;24.50
3697;BME280;60662;48.810;8.872;2022-08-03T12:27:21;96531.53;;;36.20;24.32
3697;BME280;60662;48.810;8.872;2022-08-03T12:28:23;96525.16;;;36.98;24.16
3697;BME280;60662;48.810;8.872;2022-08-03T12:29:37;96526.13;;;37.61;23.24
3697;BME280;60662;48.810;8.872;2022-08-03T12:30:39;96526.44;;;38.11;23.28
3697;BME280;60662;48.810;8.872;2022-08-03T12:31:40;96518.19;;;37.31;23.71
3697;BME280;60662;48.810;8.872;2022-08-03T12:32:42;96520.88;;;37.02;23.81
3697;BME280;60662;48.810;8.872;2022-08-03T12:34:10;96521.75;;;36.90;24.06
3697;BME280;60662;48.810;8.872;2022-08-03T12:35:23;96530.88;;;35.52;25.19
3697;BME280;60662;48.810;8.872;2022-08-03T12:36:27;96510.19;;;35.39;24.97
3697;BME280;60662;48.810;8.872;2022-08-03T12:37:29;96520.47;;;35.00;25.50
3697;BME280;60662;48.810;8.872;2022-08-03T12:38:37;96509.38;;;35.02;25.66
3697;BME280;60662;48.810;8.872;2022-08-03T12:39:40;96524.75;;;35.08;25.53
3697;BME280;60662;48.810;8.872;2022-08-03T12:41:07;96525.59;;;34.90;26.01
3697;BME280;60662;48.810;8.872;2022-08-03T12:42:08;96521.44;;;34.87;25.94
3697;BME280;60662;48.810;8.872;2022-08-03T12:43:12;96528.03;;;34.73;25.51
3697;BME280;60662;48.810;8.872;2022-08-03T12:44:14;96514.28;;;35.11;25.08
3697;BME280;60662;48.810;8.872;2022-08-03T12:45:27;96510.72;;;35.11;25.23
3697;BME280;60662;48.810;8.872;2022-08-03T12:46:39;96514.94;;;35.25;24.96
3697;BME280;60662;48.810;8.872;2022-08-03T12:47:58;96510.50;;;34.57;25.44
3697;BME280;60662;48.810;8.872;2022-08-03T12:49:04;96513.88;;;34.52;25.68
3697;BME280;60662;48.810;8.872;2022-08-03T12:50:22;96512.09;;;34.83;25.64
3697;BME280;60662;48.810;8.872;2022-08-03T12:51:25;96508.75;;;34.62;25.88
3697;BME280;60662;48.810;8.872;2022-08-03T12:52:41;96514.28;;;34.93;25.28
3697;BME280;60662;48.810;8.872;2022-08-03T12:53:51;96505.63;;;35.03;25.01
3697;BME280;60662;48.810;8.872;2022-08-03T12:54:54;96511.75;;;35.89;24.09
3697;BME280;60662;48.810;8.872;2022-08-03T12:56:01;96500.94;;;36.25;23.48
3697;BME280;60662;48.810;8.872;2022-08-03T12:57:11;96509.53;;;36.10;23.81
3697;BME280;60662;48.810;8.872;2022-08-03T12:58:28;96504.16;;;36.57;23.51
3697;BME280;60662;48.810;8.872;2022-08-03T13:00:54;96511.44;;;36.21;24.04
3697;BME280;60662;48.810;8.872;2022-08-03T13:01:56;96505.44;;;36.19;23.71
3697;BME280;60662;48.810;8.872;2022-08-03T13:03:06;96509.31;;;36.35;23.42
3697;BME280;60662;48.810;8.872;2022-08-03T13:04:30;96508.94;;;37.03;23.54
3697;BME280;60662;48.810;8.872;2022-08-03T13:05:44;96499.94;;;37.43;22.18
3697;BME280;60662;48.810;8.872;2022-08-03T13:06:55;96506.16;;;37.72;22.08
3697;BME280;60662;48.810;8.872;2022-08-03T13:08:03;96489.97;;;37.49;22.28
3697;BME280;60662;48.810;8.872;2022-08-03T13:09:06;96500.44;;;37.86;22.21
3697;BME280;60662;48.810;8.872;2022-08-03T13:10:08;96502.91;;;37.87;22.79
3697;BME280;60662;48.810;8.872;2022-08-03T13:11:37;96504.38;;;38.63;21.72
3697;BME280;60662;48.810;8.872;2022-08-03T13:12:58;96491.81;;;37.77;22.23
3697;BME280;60662;48.810;8.872;2022-08-03T13:14:00;96498.63;;;38.26;21.82
3697;BME280;60662;48.810;8.872;2022-08-03T13:15:03;96494.75;;;38.21;22.08
3697;BME280;60662;48.810;8.872;2022-08-03T13:16:04;96499.91;;;38.35;21.92
3697;BME280;60662;48.810;8.872;2022-08-03T13:17:06;96503.03;;;38.10;22.95
3697;BME280;60662;48.810;8.872;2022-08-03T13:18:08;96496.91;;;36.75;24.15
3697;BME280;60662;48.810;8.872;2022-08-03T13:19:09;96493.09;;;36.76;23.69
3697;BME280;60662;48.810;8.872;2022-08-03T13:20:16;96495.50;;;37.54;23.22
3697;BME280;60662;48.810;8.872;2022-08-03T13:21:19;96506.53;;;37.06;23.75
3697;BME280;60662;48.810;8.872;2022-08-03T13:22:23;96500.50;;;34.94;25.75
3697;BME280;60662;48.810;8.872;2022-08-03T13:23:25;96501.56;;;36.39;24.43
3697;BME280;60662;48.810;8.872;2022-08-03T13:24:26;96493.88;;;37.70;23.08
3697;BME280;60662;48.810;8.872;2022-08-03T13:25:30;96497.06;;;36.56;23.57
3697;BME280;60662;48.810;8.872;2022-08-03T13:26:32;96492.19;;;36.70;24.49
3697;BME280;60662;48.810;8.872;2022-08-03T13:27:33;96493.56;;;37.66;23.56
3697;BME280;60662;48.810;8.872;2022-08-03T14:03:17;96434.81;;;39.32;21.45
3697;BME280;60662;48.810;8.872;2022-08-03T14:04:19;96457.63;;;39.21;21.46
3697;BME280;60662;48.810;8.872;2022-08-03T14:05:22;96458.47;;;37.53;23.03
3697;BME280;60662;48.810;8.872;2022-08-03T14:06:24;96457.09;;;37.09;23.54
3697;BME280;60662;48.810;8.872;2022-08-03T14:07:26;96462.09;;;36.48;23.97
3697;BME280;60662;48.810;8.872;2022-08-03T14:08:27;96443.88;;;37.01;23.93
3697;BME280;60662;48.810;8.872;2022-08-03T14:09:29;96452.97;;;36.54;24.07
3697;BME280;60662;48.810;8.872;2022-08-03T14:10:35;96451.84;;;35.84;25.03
3697;BME280;60662;48.810;8.872;2022-08-03T14:11:37;96453.75;;;35.84;24.91
3697;BME280;60662;48.810;8.872;2022-08-03T14:12:59;96437.50;;;36.43;24.36
3697;BME280;60662;48.810;8.872;2022-08-03T14:14:00;96449.13;;;36.79;23.16
3697;BME280;60662;48.810;8.872;2022-08-03T14:15:02;96449.91;;;36.51;23.98
3697;BME280;60662;48.810;8.872;2022-08-03T14:16:05;96447.03;;;37.10;23.53
3697;BME280;60662;48.810;8.872;2022-08-03T14:17:10;96443.84;;;36.72;24.03
3697;BME280;60662;48.810;8.872;2022-08-03T14:18:12;96448.19;;;36.85;23.58
3697;BME280;60662;48.810;8.872;2022-08-03T14:19:28;96451.34;;;37.52;23.14
3697;BME280;60662;48.810;8.872;2022-08-03T14:20:30;96450.06;;;38.05;22.07
3697;BME280;60662;48.810;8.872;2022-08-03T14:21:49;96440.81;;;36.33;23.79
3697;BME280;60662;48.810;8.872;2022-08-03T14:23:07;96452.22;;;37.69;23.17
3697;BME280;60662;48.810;8.872;2022-08-03T14:24:08;96447.22;;;37.49;22.79
3697;BME280;60662;48.810;8.872;2022-08-03T14:25:10;96445.56;;;37.48;22.99
3697;BME280;60662;48.810;8.872;2022-08-03T14:26:14;96437.28;;;37.55;22.67
3697;BME280;60662;48.810;8.872;2022-08-03T14:27:16;96441.78;;;37.20;23.18
3697;BME280;60662;48.810;8.872;2022-08-03T14:28:18;96449.38;;;36.66;23.50
3697;BME280;60662;48.810;8.872;2022-08-03T14:29:20;96446.34;;;37.78;23.21
3697;BME280;60662;48.810;8.872;2022-08-03T14:30:21;96447.41;;;37.60;23.01
3697;BME280;60662;48.810;8.872;2022-08-03T14:31:23;96439.00;;;38.29;22.52
3697;BME280;60662;48.810;8.872;2022-08-03T14:32:44;96442.22;;;37.75;22.76
3697;BME280;60662;48.810;8.872;2022-08-03T14:33:46;96438.00;;;37.33;23.23
3697;BME280;60662;48.810;8.872;2022-08-03T14:34:47;96446.28;;;36.98;23.43
3697;BME280;60662;48.810;8.872;2022-08-03T14:35:50;96440.53;;;37.40;22.53
3697;BME280;60662;48.810;8.872;2022-08-03T14:36:52;96445.06;;;37.97;22.98
3697;BME280;60662;48.810;8.872;2022-08-03T14:37:53;96439.13;;;38.57;22.94
3697;BME280;60662;48.810;8.872;2022-08-03T14:38:55;96438.88;;;38.41;22.41
3697;BME280;60662;48.810;8.872;2022-08-03T14:40:01;96442.38;;;37.51;22.77
3697;BME280;60662;48.810;8.872;2022-08-03T14:41:03;96442.44;;;37.39;22.93
3697;BME280;60662;48.810;8.872;2022-08-03T14:42:04;96435.78;;;37.18;23.45
3697;BME280;60662;48.810;8.872;2022-08-03T14:43:06;96431.97;;;37.48;22.93
3697;BME280;60662;48.810;8.872;2022-08-03T14:44:07;96434.47;;;37.21;23.56
3697;BME280;60662;48.810;8.872;2022-08-03T14:45:09;96432.22;;;36.89;23.69
3697;BME280;60662;48.810;8.872;2022-08-03T14:46:20;96427.03;;;36.75;24.50
3697;BME280;60662;48.810;8.872;2022-08-03T14:47:22;96435.00;;;35.82;24.84
3697;BME280;60662;48.810;8.872;2022-08-03T14:48:23;96415.84;;;35.77;24.28
3697;BME280;60662;48.810;8.872;2022-08-03T14:49:47;96431.94;;;36.26;24.59
3697;BME280;60662;48.810;8.872;2022-08-03T14:51:08;96421.84;;;36.74;24.27
3697;BME280;60662;48.810;8.872;2022-08-03T14:52:10;96436.34;;;36.80;24.12
3697;BME280;60662;48.810;8.872;2022-08-03T14:53:12;96431.59;;;36.46;24.41
3697;BME280;60662;48.810;8.872;2022-08-03T14:54:13;96433.78;;;35.78;24.96
3697;BME280;60662;48.810;8.872;2022-08-03T14:55:18;96434.09;;;35.46;25.11
3697;BME280;60662;48.810;8.872;2022-08-03T14:56:20;96435.34;;;35.01;25.73
3697;BME280;60662;48.810;8.872;2022-08-03T14:57:21;96433.63;;;34.51;25.90
3697;BME280;60662;48.810;8.872;2022-08-03T14:58:23;96429.50;;;34.23;26.22
3697;BME280;60662;48.810;8.872;2022-08-03T14:59:27;96430.47;;;34.36;26.47
3697;BME280;60662;48.810;8.872;2022-08-03T15:00:50;96430.31;;;35.17;25.25
3697;BME280;60662;48.810;8.872;2022-08-03T15:01:52;96431.13;;;35.36;25.25
3697;BME280;60662;48.810;8.872;2022-08-03T15:03:05;96420.16;;;36.20;24.75
3697;BME280;60662;48.810;8.872;2022-08-03T15:04:06;96434.59;;;36.85;23.99
3697;BME280;60662;48.810;8.872;2022-08-03T15:05:08;96428.34;;;35.24;24.83
3697;BME280;60662;48.810;8.872;2022-08-03T15:06:13;96421.78;;;36.33;24.58
3697;BME280;60662;48.810;8.872;2022-08-03T15:07:14;96432.31;;;37.52;23.80
3697;BME280;60662;48.810;8.872;2022-08-03T15:08:15;96429.34;;;38.21;23.15
3697;BME280;60662;48.810;8.872;2022-08-03T15:09:17;96425.06;;;38.87;22.69
3697;BME280;60662;48.810;8.872;2022-08-03T15:10:24;96426.59;;;39.55;21.85
3697;BME280;60662;48.810;8.872;2022-08-03T15:11:41;96418.50;;;39.65;21.33
3697;BME280;60662;48.810;8.872;2022-08-03T15:12:43;96418.81;;;39.68;21.00
3697;BME280;60662;48.810;8.872;2022-08-03T15:13:44;96413.50;;;38.18;22.31
3697;BME280;60662;48.810;8.872;2022-08-03T15:14:45;96418.03;;;37.16;22.82
3697;BME280;60662;48.810;8.872;2022-08-03T15:15:47;96412.06;;;35.78;24.54
3697;BME280;60662;48.810;8.872;2022-08-03T15:16:49;96418.28;;;36.85;24.06
3697;BME280;60662;48.810;8.872;2022-08-03T15:17:51;96413.13;;;35.53;24.47
3697;BME280;60662;48.810;8.872;2022-08-03T15:19:01;96411.63;;;36.40;24.16
3697;BME280;60662;48.810;8.872;2022-08-03T15:20:05;96403.56;;;36.57;23.86
3697;BME280;60662;48.810;8.872;2022-08-03T15:21:28;96397.09;;;36.23;23.99
3697;BME280;60662;48.810;8.872;2022-08-03T15:22:47;96401.22;;;34.75;25.85
3697;BME280;60662;48.810;8.872;2022-08-03T15:23:49;96408.06;;;35.26;25.62
3697;BME280;60662;48.810;8.872;2022-08-03T15:24:50;96401.91;;;36.56;24.56
3697;BME280;60662;48.810;8.872;2022-08-03T15:25:52;96404.63;;;36.97;23.53
3697;BME280;60662;48.810;8.872;2022-08-03T15:27:13;96397.88;;;38.14;22.59
3697;BME280;60662;48.810;8.872;2022-08-03T15:28:15;96411.13;;;38.66;21.83
3697;BME280;60662;48.810;8.872;2022-08-03T15:29:17;96405.34;;;39.07;21.49
3697;BME280;60662;48.810;8.872;2022-08-03T15:30:38;96401.09;;;39.16;21.46
3697;BME280;60662;48.810;8.872;2022-08-03T15:31:40;96405.06;;;39.31;21.21
3697;BME280;60662;48.810;8.872;2022-08-03T15:32:41;96399.53;;;39.53;21.03
3697;BME280;60662;48.810;8.872;2022-08-03T15:33:43;96399.78;;;38.30;21.82
3697;BME280;60662;48.810;8.872;2022-08-03T15:34:45;96395.53;;;38.62;21.74
3697;BME280;60662;48.810;8.872;2022-08-03T15:35:50;96397.69;;;37.98;22.04
3697;BME280;60662;48.810;8.872;2022-08-03T15:36:53;96381.16;;;36.15;23.34
3697;BME280;60662;48.810;8.872;2022-08-03T15:37:54;96384.63;;;36.63;23.90
3697;BME280;60662;48.810;8.872;2022-08-03T15:38:56;96392.72;;;37.78;22.77
3697;BME280;60662;48.810;8.872;2022-08-03T15:39:57;96395.22;;;38.36;22.54
3697;BME280;60662;48.810;8.872;2022-08-03T15:41:00;96392.44;;;38.75;21.50
3697;BME280;60662;48.810;8.872;2022-08-03T15:42:02;96393.59;;;38.79;21.65
3697;BME280;60662;48.810;8.872;2022-08-03T15:43:04;96387.16;;;36.93;23.27
3697;BME280;60662;48.810;8.872;2022-08-03T15:44:05;96383.19;;;35.95;24.11
3697;BME280;60662;48.810;8.872;2022-08-03T15:45:10;96390.31;;;36.49;23.99
3697;BME280;60662;48.810;8.872;2022-08-03T15:46:13;96380.00;;;37.04;23.41
3697;BME280;60662;48.810;8.872;2022-08-03T15:47:30;96388.34;;;36.21;23.88
3697;BME280;60662;48.810;8.872;2022-08-03T15:48:32;96395.09;;;35.94;24.72
3697;BME280;60662;48.810;8.872;2022-08-03T15:49:33;96395.75;;;36.49;24.47
3697;BME280;60662;48.810;8.872;2022-08-03T15:50:35;96399.06;;;37.50;24.11
3697;BME280;60662;48.810;8.872;2022-08-03T15:51:37;96385.53;;;37.89;23.20
3697;BME280;60662;48.810;8.872;2022-08-03T15:52:38;96388.06;;;37.79;23.24
3697;BME280;60662;48.810;8.872;2022-08-03T15:53:40;96392.81;;;37.83;23.21
3697;BME280;60662;48.810;8.872;2022-08-03T15:54:41;96388.88;;;38.30;23.09
3697;BME280;60662;48.810;8.872;2022-08-03T15:55:43;96390.41;;;38.65;23.01
3697;BME280;60662;48.810;8.872;2022-08-03T15:56:44;96387.72;;;38.93;22.46
3697;BME280;60662;48.810;8.872;2022-08-03T15:57:46;96387.03;;;38.80;22.49
3697;BME280;60662;48.810;8.872;2022-08-03T15:59:08;96382.47;;;38.64;22.53
3697;BME280;60662;48.810;8.872;2022-08-03T16:00:14;96385.78;;;38.27;23.16
3697;BME280;60662;48.810;8.872;2022-08-03T16:01:15;96383.81;;;38.39;23.01
3697;BME280;60662;48.810;8.872;2022-08-03T16:02:20;96383.75;;;38.17;22.86
3697;BME280;60662;48.810;8.872;2022-08-03T16:03:22;96383.69;;;38.29;22.61
3697;BME280;60662;48.810;8.872;2022-08-03T16:04:24;96383.13;;;37.76;22.83
3697;BME280;60662;48.810;8.872;2022-08-03T16:05:26;96385.59;;;37.77;22.99
3697;BME280;60662;48.810;8.872;2022-08-03T16:06:27;96384.13;;;38.03;23.16
3697;BME280;60662;48.810;8.872;2022-08-03T16:07:36;96383.63;;;37.38;23.26
3697;BME280;60662;48.810;8.872;2022-08-03T16:09:05;96385.91;;;38.15;23.28
3697;BME280;60662;48.810;8.872;2022-08-03T16:10:27;96379.84;;;37.90;23.27
3697;BME280;60662;48.810;8.872;2022-08-03T16:11:31;96377.22;;;36.46;24.74
3697;BME280;60662;48.810;8.872;2022-08-03T16:12:32;96376.19;;;36.76;24.56
3697;BME280;60662;48.810;8.872;2022-08-03T16:13:34;96377.69;;;37.41;24.20
3697;BME280;60662;48.810;8.872;2022-08-03T16:14:55;96382.97;;;37.99;23.10
3697;BME280;60662;48.810;8.872;2022-08-03T16:15:57;96384.59;;;38.17;23.32
3697;BME280;60662;48.810;8.872;2022-08-03T16:16:59;96378.78;;;38.31;22.98
3697;BME280;60662;48.810;8.872;2022-08-03T16:18:01;96385.47;;;38.40;22.71
3697;BME280;60662;48.810;8.872;2022-08-03T16:19:02;96375.50;;;38.12;23.18
3697;BME280;60662;48.810;8.872;2022-08-03T16:20:07;96373.66;;;36.57;25.08
3697;BME280;60662;48.810;8.872;2022-08-03T16:21:29;96370.91;;;37.27;23.74
3697;BME280;60662;48.810;8.872;2022-08-03T16:22:47;96381.19;;;37.25;24.33
3697;BME280;60662;48.810;8.872;2022-08-03T16:23:48;96373.69;;;37.32;24.11
3697;BME280;60662;48.810;8.872;2022-08-03T16:24:52;96375.13;;;37.52;23.91
3697;BME280;60662;48.810;8.872;2022-08-03T16:25:54;96373.72;;;37.49;24.25
3697;BME280;60662;48.810;8.872;2022-08-03T16:26:55;96372.91;;;37.49;24.61
3697;BME280;60662;48.810;8.872;2022-08-03T16:27:57;96377.03;;;37.68;23.77
3697;BME280;60662;48.810;8.872;2022-08-03T16:29:13;96371.59;;;36.12;25.29